sensor_id;sensor_type;location;lat;lon;timestamp;P1;durP1;ratioP1;P2;durP2;ratioP2
71187;SDS011;58893;53.130;8.158;2023-03-13T00:01:01;25.30;;;4.90;;
71187;SDS011;58893;53.130;8.158;2023-03-13T00:03:33;21.73;;;5.43;;
71187;SDS011;58893;53.130;8.158;2023-03-13T00:05:59;19.27;;;5.60;;
71187;SDS011;58893;53.130;8.158;2023-03-13T00:08:29;11.00;;;4.50;;
71187;SDS011;58893;53.130;8.158;2023-03-13T00:10:55;17.63;;;5.60;;
71187;SDS011;58893;53.130;8.158;2023-03-13T00:13:21;23.77;;;5.67;;
71187;SDS011;58893;53.130;8.158;2023-03-13T00:15:47;19.20;;;5.10;;
71187;SDS011;58893;53.130;8.158;2023-03-13T00:18:13;25.93;;;5.30;;
71187;SDS011;58893;53.130;8.158;2023-03-13T00:20:38;19.80;;;5.03;;
71187;SDS011;58893;53.130;8.158;2023-03-13T00:23:04;40.00;;;6.10;;
71187;SDS011;58893;53.130;8.158;2023-03-13T00:25:30;19.67;;;4.87;;
71187;SDS011;58893;53.130;8.158;2023-03-13T00:27:55;24.30;;;5.30;;
71187;SDS011;58893;53.130;8.158;2023-03-13T00:30:21;17.33;;;5.67;;
71187;SDS011;58893;53.130;8.158;2023-03-13T00:32:47;23.70;;;5.10;;
71187;SDS011;58893;53.130;8.158;2023-03-13T00:35:13;14.63;;;3.87;;
71187;SDS011;58893;53.130;8.158;2023-03-13T00:37:39;15.57;;;4.97;;
71187;SDS011;58893;53.130;8.158;2023-03-13T00:40:06;16.93;;;5.20;;
71187;SDS011;58893;53.130;8.158;2023-03-13T00:42:32;27.87;;;4.17;;
71187;SDS011;58893;53.130;8.158;2023-03-13T00:44:58;26.90;;;4.27;;
71187;SDS011;58893;53.130;8.158;2023-03-13T00:47:24;26.03;;;4.93;;
71187;SDS011;58893;53.130;8.158;2023-03-13T00:49:50;27.87;;;4.17;;
71187;SDS011;58893;53.130;8.158;2023-03-13T00:52:15;18.77;;;4.17;;
71187;SDS011;58893;53.130;8.158;2023-03-13T00:54:41;18.30;;;4.70;;
71187;SDS011;58893;53.130;8.158;2023-03-13T00:57:07;13.93;;;4.83;;
71187;SDS011;58893;53.130;8.158;2023-03-13T00:59:33;21.23;;;3.70;;
71187;SDS011;58893;53.130;8.158;2023-03-13T01:01:59;20.37;;;4.13;;
71187;SDS011;58893;53.130;8.158;2023-03-13T01:04:25;19.90;;;3.70;;
71187;SDS011;58893;53.130;8.158;2023-03-13T01:06:51;23.67;;;4.57;;
71187;SDS011;58893;53.130;8.158;2023-03-13T01:09:17;39.50;;;3.73;;
71187;SDS011;58893;53.130;8.158;2023-03-13T01:11:44;16.73;;;2.90;;
71187;SDS011;58893;53.130;8.158;2023-03-13T01:14:12;37.47;;;4.63;;
71187;SDS011;58893;53.130;8.158;2023-03-13T01:16:40;27.70;;;4.00;;
71187;SDS011;58893;53.130;8.158;2023-03-13T01:19:07;22.30;;;3.73;;
71187;SDS011;58893;53.130;8.158;2023-03-13T01:21:35;37.53;;;4.10;;
71187;SDS011;58893;53.130;8.158;2023-03-13T01:24:01;34.90;;;4.90;;
71187;SDS011;58893;53.130;8.158;2023-03-13T01:26:28;15.73;;;3.60;;
71187;SDS011;58893;53.130;8.158;2023-03-13T01:28:55;35.93;;;4.60;;
71187;SDS011;58893;53.130;8.158;2023-03-13T01:31:22;23.80;;;3.97;;
71187;SDS011;58893;53.130;8.158;2023-03-13T01:33:50;34.20;;;3.30;;
71187;SDS011;58893;53.130;8.158;2023-03-13T01:36:18;10.90;;;3.40;;
71187;SDS011;58893;53.130;8.158;2023-03-13T01:38:47;18.93;;;3.53;;
71187;SDS011;58893;53.130;8.158;2023-03-13T01:41:14;26.23;;;3.93;;
71187;SDS011;58893;53.130;8.158;2023-03-13T01:43:40;11.13;;;2.90;;
71187;SDS011;58893;53.130;8.158;2023-03-13T01:48:39;21.10;;;3.50;;
71187;SDS011;58893;53.130;8.158;2023-03-13T01:51:07;10.87;;;2.60;;
71187;SDS011;58893;53.130;8.158;2023-03-13T01:53:36;18.70;;;3.53;;
71187;SDS011;58893;53.130;8.158;2023-03-13T01:56:06;11.33;;;2.90;;
71187;SDS011;58893;53.130;8.158;2023-03-13T01:58:36;22.23;;;3.97;;
71187;SDS011;58893;53.130;8.158;2023-03-13T02:01:02;13.37;;;2.20;;
71187;SDS011;58893;53.130;8.158;2023-03-13T02:03:29;10.97;;;3.57;;
71187;SDS011;58893;53.130;8.158;2023-03-13T02:05:55;27.23;;;2.83;;
71187;SDS011;58893;53.130;8.158;2023-03-13T02:08:24;23.53;;;3.40;;
71187;SDS011;58893;53.130;8.158;2023-03-13T02:11:02;28.70;;;4.87;;
71187;SDS011;58893;53.130;8.158;2023-03-13T02:13:36;26.60;;;3.07;;
71187;SDS011;58893;53.130;8.158;2023-03-13T02:16:02;23.10;;;4.40;;
71187;SDS011;58893;53.130;8.158;2023-03-13T02:18:28;18.63;;;3.00;;
71187;SDS011;58893;53.130;8.158;2023-03-13T02:20:55;23.53;;;3.90;;
71187;SDS011;58893;53.130;8.158;2023-03-13T02:23:35;16.97;;;2.87;;
71187;SDS011;58893;53.130;8.158;2023-03-13T02:26:15;22.60;;;4.03;;
71187;SDS011;58893;53.130;8.158;2023-03-13T02:28:41;24.20;;;3.50;;
71187;SDS011;58893;53.130;8.158;2023-03-13T02:31:07;11.77;;;2.77;;
71187;SDS011;58893;53.130;8.158;2023-03-13T02:33:40;22.10;;;3.00;;
71187;SDS011;58893;53.130;8.158;2023-03-13T02:36:07;14.10;;;3.47;;
71187;SDS011;58893;53.130;8.158;2023-03-13T02:38:34;22.87;;;4.50;;
71187;SDS011;58893;53.130;8.158;2023-03-13T02:41:04;16.80;;;2.83;;
71187;SDS011;58893;53.130;8.158;2023-03-13T02:46:29;12.07;;;2.73;;
71187;SDS011;58893;53.130;8.158;2023-03-13T02:48:52;14.17;;;3.63;;
71187;SDS011;58893;53.130;8.158;2023-03-13T02:51:37;17.90;;;3.80;;
71187;SDS011;58893;53.130;8.158;2023-03-13T02:54:08;15.10;;;3.57;;
71187;SDS011;58893;53.130;8.158;2023-03-13T02:56:37;21.50;;;2.97;;
71187;SDS011;58893;53.130;8.158;2023-03-13T02:59:04;15.77;;;3.63;;
71187;SDS011;58893;53.130;8.158;2023-03-13T03:01:31;16.43;;;2.70;;
71187;SDS011;58893;53.130;8.158;2023-03-13T03:03:57;10.60;;;2.90;;
71187;SDS011;58893;53.130;8.158;2023-03-13T03:06:23;10.27;;;2.70;;
71187;SDS011;58893;53.130;8.158;2023-03-13T03:08:48;24.33;;;3.57;;
71187;SDS011;58893;53.130;8.158;2023-03-13T03:11:14;22.73;;;2.90;;
71187;SDS011;58893;53.130;8.158;2023-03-13T03:13:40;19.23;;;3.27;;
71187;SDS011;58893;53.130;8.158;2023-03-13T03:16:06;13.73;;;2.70;;
71187;SDS011;58893;53.130;8.158;2023-03-13T03:18:36;10.13;;;2.70;;
71187;SDS011;58893;53.130;8.158;2023-03-13T03:21:03;11.33;;;2.60;;
71187;SDS011;58893;53.130;8.158;2023-03-13T03:23:33;23.17;;;3.60;;
71187;SDS011;58893;53.130;8.158;2023-03-13T03:25:59;11.07;;;2.73;;
71187;SDS011;58893;53.130;8.158;2023-03-13T03:28:25;16.17;;;2.60;;
71187;SDS011;58893;53.130;8.158;2023-03-13T03:30:51;11.17;;;3.30;;
71187;SDS011;58893;53.130;8.158;2023-03-13T03:33:18;22.67;;;3.93;;
71187;SDS011;58893;53.130;8.158;2023-03-13T03:35:44;22.30;;;3.43;;
71187;SDS011;58893;53.130;8.158;2023-03-13T03:38:10;15.27;;;3.30;;
71187;SDS011;58893;53.130;8.158;2023-03-13T03:40:36;12.90;;;2.90;;
71187;SDS011;58893;53.130;8.158;2023-03-13T03:43:01;23.13;;;4.00;;
71187;SDS011;58893;53.130;8.158;2023-03-13T03:45:27;17.77;;;3.37;;
71187;SDS011;58893;53.130;8.158;2023-03-13T03:47:53;16.87;;;3.20;;
71187;SDS011;58893;53.130;8.158;2023-03-13T03:50:18;9.67;;;3.57;;
71187;SDS011;58893;53.130;8.158;2023-03-13T03:52:44;15.03;;;4.43;;
71187;SDS011;58893;53.130;8.158;2023-03-13T03:55:10;9.90;;;3.90;;
71187;SDS011;58893;53.130;8.158;2023-03-13T03:57:35;8.57;;;3.37;;
71187;SDS011;58893;53.130;8.158;2023-03-13T04:00:01;10.93;;;4.23;;
71187;SDS011;58893;53.130;8.158;2023-03-13T04:02:27;22.17;;;4.33;;
71187;SDS011;58893;53.130;8.158;2023-03-13T04:04:53;20.23;;;4.80;;
71187;SDS011;58893;53.130;8.158;2023-03-13T04:07:18;17.23;;;4.30;;
71187;SDS011;58893;53.130;8.158;2023-03-13T04:09:44;10.97;;;4.50;;
71187;SDS011;58893;53.130;8.158;2023-03-13T04:12:09;20.17;;;4.23;;
71187;SDS011;58893;53.130;8.158;2023-03-13T04:14:35;11.03;;;4.37;;
71187;SDS011;58893;53.130;8.158;2023-03-13T04:17:01;10.53;;;4.47;;
71187;SDS011;58893;53.130;8.158;2023-03-13T04:19:26;17.33;;;3.83;;
71187;SDS011;58893;53.130;8.158;2023-03-13T04:21:52;11.37;;;3.90;;
71187;SDS011;58893;53.130;8.158;2023-03-13T04:24:17;8.30;;;3.90;;
71187;SDS011;58893;53.130;8.158;2023-03-13T04:26:43;8.13;;;3.47;;
71187;SDS011;58893;53.130;8.158;2023-03-13T04:29:09;13.23;;;4.53;;
71187;SDS011;58893;53.130;8.158;2023-03-13T04:31:34;9.10;;;3.80;;
71187;SDS011;58893;53.130;8.158;2023-03-13T04:34:00;7.90;;;4.60;;
71187;SDS011;58893;53.130;8.158;2023-03-13T04:36:25;22.73;;;5.37;;
71187;SDS011;58893;53.130;8.158;2023-03-13T04:38:51;18.43;;;3.97;;
71187;SDS011;58893;53.130;8.158;2023-03-13T04:41:17;8.67;;;3.87;;
71187;SDS011;58893;53.130;8.158;2023-03-13T04:43:42;11.30;;;4.50;;
71187;SDS011;58893;53.130;8.158;2023-03-13T04:46:08;5.77;;;3.87;;
71187;SDS011;58893;53.130;8.158;2023-03-13T04:48:33;20.47;;;4.20;;
71187;SDS011;58893;53.130;8.158;2023-03-13T04:50:59;22.90;;;4.33;;
71187;SDS011;58893;53.130;8.158;2023-03-13T04:53:25;8.33;;;3.37;;
71187;SDS011;58893;53.130;8.158;2023-03-13T04:55:50;6.50;;;2.90;;
71187;SDS011;58893;53.130;8.158;2023-03-13T04:58:16;5.20;;;3.53;;
71187;SDS011;58893;53.130;8.158;2023-03-13T05:00:41;5.50;;;3.17;;
71187;SDS011;58893;53.130;8.158;2023-03-13T05:03:07;5.37;;;2.63;;
71187;SDS011;58893;53.130;8.158;2023-03-13T05:05:33;7.10;;;3.33;;
71187;SDS011;58893;53.130;8.158;2023-03-13T05:08:00;13.87;;;5.07;;
71187;SDS011;58893;53.130;8.158;2023-03-13T05:10:26;9.30;;;3.53;;
71187;SDS011;58893;53.130;8.158;2023-03-13T05:12:51;4.63;;;2.57;;
71187;SDS011;58893;53.130;8.158;2023-03-13T05:15:17;7.30;;;3.00;;
71187;SDS011;58893;53.130;8.158;2023-03-13T05:17:43;3.97;;;3.07;;
71187;SDS011;58893;53.130;8.158;2023-03-13T05:20:08;7.30;;;3.50;;
71187;SDS011;58893;53.130;8.158;2023-03-13T05:22:35;6.17;;;2.80;;
71187;SDS011;58893;53.130;8.158;2023-03-13T05:25:01;9.93;;;2.70;;
71187;SDS011;58893;53.130;8.158;2023-03-13T05:27:28;4.70;;;3.27;;
71187;SDS011;58893;53.130;8.158;2023-03-13T05:29:53;9.20;;;3.00;;
71187;SDS011;58893;53.130;8.158;2023-03-13T05:32:19;8.50;;;3.77;;
71187;SDS011;58893;53.130;8.158;2023-03-13T05:34:44;13.63;;;3.37;;
71187;SDS011;58893;53.130;8.158;2023-03-13T05:37:10;4.00;;;2.90;;
71187;SDS011;58893;53.130;8.158;2023-03-13T05:39:36;5.30;;;3.30;;
71187;SDS011;58893;53.130;8.158;2023-03-13T05:42:02;6.70;;;3.13;;
71187;SDS011;58893;53.130;8.158;2023-03-13T05:44:27;7.57;;;3.37;;
71187;SDS011;58893;53.130;8.158;2023-03-13T05:46:53;3.60;;;2.30;;
71187;SDS011;58893;53.130;8.158;2023-03-13T05:49:19;4.37;;;2.80;;
71187;SDS011;58893;53.130;8.158;2023-03-13T05:51:44;5.30;;;3.17;;
71187;SDS011;58893;53.130;8.158;2023-03-13T05:54:10;6.00;;;3.57;;
71187;SDS011;58893;53.130;8.158;2023-03-13T05:56:36;5.83;;;3.37;;
71187;SDS011;58893;53.130;8.158;2023-03-13T05:59:01;6.50;;;3.20;;
71187;SDS011;58893;53.130;8.158;2023-03-13T06:01:27;6.87;;;3.80;;
71187;SDS011;58893;53.130;8.158;2023-03-13T06:03:53;4.83;;;2.90;;
71187;SDS011;58893;53.130;8.158;2023-03-13T06:06:19;5.17;;;3.03;;
71187;SDS011;58893;53.130;8.158;2023-03-13T06:08:44;4.20;;;2.90;;
71187;SDS011;58893;53.130;8.158;2023-03-13T06:11:10;9.60;;;3.70;;
71187;SDS011;58893;53.130;8.158;2023-03-13T06:13:35;6.27;;;2.87;;
71187;SDS011;58893;53.130;8.158;2023-03-13T06:16:01;5.53;;;2.40;;
71187;SDS011;58893;53.130;8.158;2023-03-13T06:18:27;4.50;;;2.97;;
71187;SDS011;58893;53.130;8.158;2023-03-13T06:20:57;5.87;;;2.93;;
71187;SDS011;58893;53.130;8.158;2023-03-13T06:23:24;3.40;;;2.47;;
71187;SDS011;58893;53.130;8.158;2023-03-13T06:25:49;5.63;;;2.70;;
71187;SDS011;58893;53.130;8.158;2023-03-13T06:28:15;5.57;;;3.00;;
71187;SDS011;58893;53.130;8.158;2023-03-13T06:30:41;4.87;;;2.40;;
71187;SDS011;58893;53.130;8.158;2023-03-13T06:33:07;3.23;;;2.50;;
71187;SDS011;58893;53.130;8.158;2023-03-13T06:35:33;3.77;;;2.50;;
71187;SDS011;58893;53.130;8.158;2023-03-13T06:37:58;2.53;;;1.90;;
71187;SDS011;58893;53.130;8.158;2023-03-13T06:40:24;5.00;;;2.57;;
71187;SDS011;58893;53.130;8.158;2023-03-13T06:42:50;3.90;;;2.30;;
71187;SDS011;58893;53.130;8.158;2023-03-13T06:45:15;3.00;;;2.43;;
71187;SDS011;58893;53.130;8.158;2023-03-13T06:47:41;2.70;;;1.87;;
71187;SDS011;58893;53.130;8.158;2023-03-13T06:50:07;1.87;;;1.70;;
71187;SDS011;58893;53.130;8.158;2023-03-13T06:52:33;3.53;;;2.10;;
71187;SDS011;58893;53.130;8.158;2023-03-13T06:54:59;7.73;;;2.57;;
71187;SDS011;58893;53.130;8.158;2023-03-13T06:57:25;2.50;;;2.00;;
71187;SDS011;58893;53.130;8.158;2023-03-13T06:59:50;4.20;;;2.50;;
71187;SDS011;58893;53.130;8.158;2023-03-13T07:02:16;2.40;;;2.00;;
71187;SDS011;58893;53.130;8.158;2023-03-13T07:04:42;13.73;;;2.07;;
71187;SDS011;58893;53.130;8.158;2023-03-13T07:07:07;9.23;;;2.53;;
71187;SDS011;58893;53.130;8.158;2023-03-13T07:09:33;2.97;;;2.30;;
71187;SDS011;58893;53.130;8.158;2023-03-13T07:11:59;2.90;;;2.60;;
71187;SDS011;58893;53.130;8.158;2023-03-13T07:14:24;3.13;;;2.17;;
71187;SDS011;58893;53.130;8.158;2023-03-13T07:16:50;4.20;;;2.03;;
71187;SDS011;58893;53.130;8.158;2023-03-13T07:19:16;3.40;;;2.40;;
71187;SDS011;58893;53.130;8.158;2023-03-13T07:21:41;8.43;;;3.10;;
71187;SDS011;58893;53.130;8.158;2023-03-13T07:24:08;3.37;;;2.10;;
71187;SDS011;58893;53.130;8.158;2023-03-13T07:26:34;5.50;;;2.40;;
71187;SDS011;58893;53.130;8.158;2023-03-13T07:28:59;3.60;;;2.30;;
71187;SDS011;58893;53.130;8.158;2023-03-13T07:31:25;4.97;;;2.50;;
71187;SDS011;58893;53.130;8.158;2023-03-13T07:33:52;2.93;;;2.17;;
71187;SDS011;58893;53.130;8.158;2023-03-13T07:36:20;3.27;;;2.53;;
71187;SDS011;58893;53.130;8.158;2023-03-13T07:38:46;16.33;;;3.80;;
71187;SDS011;58893;53.130;8.158;2023-03-13T07:41:13;6.03;;;2.80;;
71187;SDS011;58893;53.130;8.158;2023-03-13T07:43:39;5.20;;;3.00;;
71187;SDS011;58893;53.130;8.158;2023-03-13T07:46:05;8.80;;;3.23;;
71187;SDS011;58893;53.130;8.158;2023-03-13T07:48:33;9.07;;;3.47;;
71187;SDS011;58893;53.130;8.158;2023-03-13T07:51:00;8.47;;;3.93;;
71187;SDS011;58893;53.130;8.158;2023-03-13T07:53:27;9.33;;;3.70;;
71187;SDS011;58893;53.130;8.158;2023-03-13T07:58:20;7.87;;;3.73;;
71187;SDS011;58893;53.130;8.158;2023-03-13T08:00:46;15.27;;;3.30;;
71187;SDS011;58893;53.130;8.158;2023-03-13T08:03:12;12.97;;;3.70;;
71187;SDS011;58893;53.130;8.158;2023-03-13T08:05:37;7.70;;;3.80;;
71187;SDS011;58893;53.130;8.158;2023-03-13T08:08:03;7.00;;;3.63;;
71187;SDS011;58893;53.130;8.158;2023-03-13T08:10:29;22.27;;;3.97;;
71187;SDS011;58893;53.130;8.158;2023-03-13T08:12:55;19.60;;;4.57;;
71187;SDS011;58893;53.130;8.158;2023-03-13T08:15:20;15.50;;;4.63;;
71187;SDS011;58893;53.130;8.158;2023-03-13T08:17:50;9.00;;;3.67;;
71187;SDS011;58893;53.130;8.158;2023-03-13T08:20:16;11.00;;;4.60;;
71187;SDS011;58893;53.130;8.158;2023-03-13T08:22:45;13.33;;;5.10;;
71187;SDS011;58893;53.130;8.158;2023-03-13T08:25:14;14.17;;;3.87;;
71187;SDS011;58893;53.130;8.158;2023-03-13T08:27:41;8.40;;;4.13;;
71187;SDS011;58893;53.130;8.158;2023-03-13T08:30:07;9.43;;;4.60;;
71187;SDS011;58893;53.130;8.158;2023-03-13T08:32:34;18.03;;;4.30;;
71187;SDS011;58893;53.130;8.158;2023-03-13T08:35:00;9.00;;;5.40;;
71187;SDS011;58893;53.130;8.158;2023-03-13T08:37:26;6.93;;;4.03;;
71187;SDS011;58893;53.130;8.158;2023-03-13T08:39:51;8.87;;;4.47;;
71187;SDS011;58893;53.130;8.158;2023-03-13T08:42:20;9.47;;;4.53;;
71187;SDS011;58893;53.130;8.158;2023-03-13T08:44:46;5.23;;;3.80;;
71187;SDS011;58893;53.130;8.158;2023-03-13T08:47:11;7.00;;;4.20;;
71187;SDS011;58893;53.130;8.158;2023-03-13T08:49:37;7.57;;;4.20;;
71187;SDS011;58893;53.130;8.158;2023-03-13T08:52:03;7.33;;;3.93;;
71187;SDS011;58893;53.130;8.158;2023-03-13T08:54:30;14.03;;;4.07;;
71187;SDS011;58893;53.130;8.158;2023-03-13T08:56:56;11.67;;;4.37;;
71187;SDS011;58893;53.130;8.158;2023-03-13T08:59:21;9.10;;;4.80;;
71187;SDS011;58893;53.130;8.158;2023-03-13T09:01:47;11.43;;;4.20;;
71187;SDS011;58893;53.130;8.158;2023-03-13T09:04:13;7.30;;;4.60;;
71187;SDS011;58893;53.130;8.158;2023-03-13T09:06:38;13.03;;;4.27;;
71187;SDS011;58893;53.130;8.158;2023-03-13T09:09:04;8.67;;;4.00;;
71187;SDS011;58893;53.130;8.158;2023-03-13T09:11:31;10.67;;;4.37;;
71187;SDS011;58893;53.130;8.158;2023-03-13T09:13:57;4.37;;;3.20;;
71187;SDS011;58893;53.130;8.158;2023-03-13T09:16:24;4.87;;;3.60;;
71187;SDS011;58893;53.130;8.158;2023-03-13T09:18:51;6.33;;;3.37;;
71187;SDS011;58893;53.130;8.158;2023-03-13T09:21:19;4.70;;;3.40;;
71187;SDS011;58893;53.130;8.158;2023-03-13T09:23:45;11.23;;;4.00;;
71187;SDS011;58893;53.130;8.158;2023-03-13T09:26:11;11.33;;;3.40;;
71187;SDS011;58893;53.130;8.158;2023-03-13T09:28:38;7.80;;;3.80;;
71187;SDS011;58893;53.130;8.158;2023-03-13T09:31:25;4.37;;;3.50;;
71187;SDS011;58893;53.130;8.158;2023-03-13T09:33:52;8.77;;;3.67;;
71187;SDS011;58893;53.130;8.158;2023-03-13T09:36:18;6.00;;;3.50;;
71187;SDS011;58893;53.130;8.158;2023-03-13T09:38:44;8.23;;;3.93;;
71187;SDS011;58893;53.130;8.158;2023-03-13T09:43:40;8.17;;;3.20;;
71187;SDS011;58893;53.130;8.158;2023-03-13T09:46:10;4.30;;;2.97;;
71187;SDS011;58893;53.130;8.158;2023-03-13T09:48:48;7.60;;;3.27;;
71187;SDS011;58893;53.130;8.158;2023-03-13T09:54:07;5.53;;;3.00;;
71187;SDS011;58893;53.130;8.158;2023-03-13T09:56:59;8.37;;;2.90;;
71187;SDS011;58893;53.130;8.158;2023-03-13T10:07:45;9.77;;;2.57;;
71187;SDS011;58893;53.130;8.158;2023-03-13T10:10:15;14.50;;;2.80;;
71187;SDS011;58893;53.130;8.158;2023-03-13T10:12:45;4.83;;;2.43;;
71187;SDS011;58893;53.130;8.158;2023-03-13T10:15:55;5.60;;;3.13;;
71187;SDS011;58893;53.130;8.158;2023-03-13T10:18:11;3.77;;;2.40;;
71187;SDS011;58893;53.130;8.158;2023-03-13T10:20:45;7.77;;;2.43;;
71187;SDS011;58893;53.130;8.158;2023-03-13T10:23:17;2.53;;;2.03;;
71187;SDS011;58893;53.130;8.158;2023-03-13T10:25:51;4.20;;;2.47;;
71187;SDS011;58893;53.130;8.158;2023-03-13T10:28:17;5.70;;;2.40;;
71187;SDS011;58893;53.130;8.158;2023-03-13T10:30:48;10.30;;;2.00;;
71187;SDS011;58893;53.130;8.158;2023-03-13T10:33:25;7.03;;;2.53;;
71187;SDS011;58893;53.130;8.158;2023-03-13T10:36:08;7.70;;;2.30;;
71187;SDS011;58893;53.130;8.158;2023-03-13T10:38:44;5.47;;;2.00;;
71187;SDS011;58893;53.130;8.158;2023-03-13T10:43:58;4.43;;;2.13;;
71187;SDS011;58893;53.130;8.158;2023-03-13T10:46:28;6.33;;;2.27;;
71187;SDS011;58893;53.130;8.158;2023-03-13T10:48:56;3.47;;;1.80;;
71187;SDS011;58893;53.130;8.158;2023-03-13T10:51:29;3.50;;;1.97;;
71187;SDS011;58893;53.130;8.158;2023-03-13T10:56:45;3.10;;;1.73;;
71187;SDS011;58893;53.130;8.158;2023-03-13T10:59:22;10.63;;;2.07;;
71187;SDS011;58893;53.130;8.158;2023-03-13T11:01:52;5.60;;;1.90;;
71187;SDS011;58893;53.130;8.158;2023-03-13T11:07:00;3.93;;;2.20;;
71187;SDS011;58893;53.130;8.158;2023-03-13T11:09:30;3.97;;;2.10;;
71187;SDS011;58893;53.130;8.158;2023-03-13T11:12:01;5.03;;;2.10;;
71187;SDS011;58893;53.130;8.158;2023-03-13T11:14:47;3.37;;;1.90;;
71187;SDS011;58893;53.130;8.158;2023-03-13T11:17:37;2.33;;;1.60;;
71187;SDS011;58893;53.130;8.158;2023-03-13T11:31:31;4.30;;;1.57;;
71187;SDS011;58893;53.130;8.158;2023-03-13T11:34:04;2.50;;;1.73;;
71187;SDS011;58893;53.130;8.158;2023-03-13T11:36:59;2.43;;;1.90;;
71187;SDS011;58893;53.130;8.158;2023-03-13T11:59:23;7.97;;;1.83;;
71187;SDS011;58893;53.130;8.158;2023-03-13T12:01:26;5.43;;;1.83;;
71187;SDS011;58893;53.130;8.158;2023-03-13T12:06:33;4.00;;;1.73;;
71187;SDS011;58893;53.130;8.158;2023-03-13T12:11:53;10.70;;;1.60;;
71187;SDS011;58893;53.130;8.158;2023-03-13T12:17:33;2.07;;;1.67;;
71187;SDS011;58893;53.130;8.158;2023-03-13T12:25:33;6.30;;;1.53;;
71187;SDS011;58893;53.130;8.158;2023-03-13T12:36:33;1.60;;;1.50;;
71187;SDS011;58893;53.130;8.158;2023-03-13T12:44:10;10.10;;;2.03;;
71187;SDS011;58893;53.130;8.158;2023-03-13T12:47:01;2.37;;;1.30;;
71187;SDS011;58893;53.130;8.158;2023-03-13T13:00:34;3.50;;;1.90;;
71187;SDS011;58893;53.130;8.158;2023-03-13T13:03:08;4.70;;;1.90;;
71187;SDS011;58893;53.130;8.158;2023-03-13T13:05:40;3.00;;;1.80;;
71187;SDS011;58893;53.130;8.158;2023-03-13T13:08:30;3.40;;;1.60;;
71187;SDS011;58893;53.130;8.158;2023-03-13T13:13:59;3.73;;;1.60;;
71187;SDS011;58893;53.130;8.158;2023-03-13T13:16:25;6.53;;;1.90;;
71187;SDS011;58893;53.130;8.158;2023-03-13T13:18:52;2.00;;;1.43;;
71187;SDS011;58893;53.130;8.158;2023-03-13T13:21:19;2.70;;;1.37;;
71187;SDS011;58893;53.130;8.158;2023-03-13T13:23:45;6.83;;;2.30;;
71187;SDS011;58893;53.130;8.158;2023-03-13T13:39:40;4.97;;;1.90;;
71187;SDS011;58893;53.130;8.158;2023-03-13T13:47:40;3.87;;;1.67;;
71187;SDS011;58893;53.130;8.158;2023-03-13T13:50:23;8.07;;;3.67;;
71187;SDS011;58893;53.130;8.158;2023-03-13T13:52:51;3.70;;;2.07;;
71187;SDS011;58893;53.130;8.158;2023-03-13T13:55:30;8.00;;;2.10;;
71187;SDS011;58893;53.130;8.158;2023-03-13T13:58:08;3.47;;;1.70;;
71187;SDS011;58893;53.130;8.158;2023-03-13T14:03:25;9.13;;;1.90;;
71187;SDS011;58893;53.130;8.158;2023-03-13T14:05:58;2.97;;;1.43;;
71187;SDS011;58893;53.130;8.158;2023-03-13T14:08:31;6.20;;;1.90;;
71187;SDS011;58893;53.130;8.158;2023-03-13T14:11:22;5.27;;;1.73;;
71187;SDS011;58893;53.130;8.158;2023-03-13T14:14:07;2.10;;;1.33;;
71187;SDS011;58893;53.130;8.158;2023-03-13T14:16:39;3.13;;;1.90;;
71187;SDS011;58893;53.130;8.158;2023-03-13T14:19:27;4.80;;;2.00;;
71187;SDS011;58893;53.130;8.158;2023-03-13T14:22:05;3.23;;;1.70;;
71187;SDS011;58893;53.130;8.158;2023-03-13T14:24:32;4.17;;;2.10;;
71187;SDS011;58893;53.130;8.158;2023-03-13T14:26:59;3.87;;;1.90;;
71187;SDS011;58893;53.130;8.158;2023-03-13T14:29:25;3.30;;;1.50;;
71187;SDS011;58893;53.130;8.158;2023-03-13T14:31:55;2.80;;;1.40;;
71187;SDS011;58893;53.130;8.158;2023-03-13T14:34:23;8.60;;;1.70;;
71187;SDS011;58893;53.130;8.158;2023-03-13T14:36:51;3.67;;;1.73;;
71187;SDS011;58893;53.130;8.158;2023-03-13T14:40:03;4.63;;;2.10;;
71187;SDS011;58893;53.130;8.158;2023-03-13T14:42:14;4.37;;;1.87;;
71187;SDS011;58893;53.130;8.158;2023-03-13T14:44:41;22.63;;;2.53;;
71187;SDS011;58893;53.130;8.158;2023-03-13T14:49:45;1.70;;;1.20;;
71187;SDS011;58893;53.130;8.158;2023-03-13T14:52:24;3.03;;;1.57;;
71187;SDS011;58893;53.130;8.158;2023-03-13T14:54:55;6.63;;;1.60;;
71187;SDS011;58893;53.130;8.158;2023-03-13T14:57:26;2.90;;;1.23;;
71187;SDS011;58893;53.130;8.158;2023-03-13T15:00:20;3.70;;;1.33;;
71187;SDS011;58893;53.130;8.158;2023-03-13T15:08:22;2.50;;;1.67;;
71187;SDS011;58893;53.130;8.158;2023-03-13T15:10:48;2.03;;;1.07;;
71187;SDS011;58893;53.130;8.158;2023-03-13T15:15:41;6.23;;;1.37;;
71187;SDS011;58893;53.130;8.158;2023-03-13T15:18:14;6.77;;;1.90;;
71187;SDS011;58893;53.130;8.158;2023-03-13T15:20:42;3.70;;;1.20;;
71187;SDS011;58893;53.130;8.158;2023-03-13T15:23:10;7.77;;;1.30;;
71187;SDS011;58893;53.130;8.158;2023-03-13T15:25:39;5.10;;;1.20;;
71187;SDS011;58893;53.130;8.158;2023-03-13T15:28:07;1.93;;;1.23;;
71187;SDS011;58893;53.130;8.158;2023-03-13T15:30:45;4.80;;;1.43;;
71187;SDS011;58893;53.130;8.158;2023-03-13T15:33:17;2.97;;;1.03;;
71187;SDS011;58893;53.130;8.158;2023-03-13T15:35:45;13.57;;;1.70;;
71187;SDS011;58893;53.130;8.158;2023-03-13T15:38:12;2.80;;;1.20;;
71187;SDS011;58893;53.130;8.158;2023-03-13T15:40:39;4.10;;;1.60;;
71187;SDS011;58893;53.130;8.158;2023-03-13T15:43:05;2.80;;;1.20;;
71187;SDS011;58893;53.130;8.158;2023-03-13T15:45:31;8.87;;;1.63;;
71187;SDS011;58893;53.130;8.158;2023-03-13T15:48:01;1.70;;;1.13;;
71187;SDS011;58893;53.130;8.158;2023-03-13T15:50:27;11.83;;;1.87;;
71187;SDS011;58893;53.130;8.158;2023-03-13T15:52:58;4.40;;;1.40;;
71187;SDS011;58893;53.130;8.158;2023-03-13T15:55:27;7.60;;;1.50;;
71187;SDS011;58893;53.130;8.158;2023-03-13T15:57:53;6.60;;;1.80;;
71187;SDS011;58893;53.130;8.158;2023-03-13T16:00:20;5.37;;;1.80;;
71187;SDS011;58893;53.130;8.158;2023-03-13T16:02:48;11.83;;;1.53;;
71187;SDS011;58893;53.130;8.158;2023-03-13T16:05:14;2.77;;;1.60;;
71187;SDS011;58893;53.130;8.158;2023-03-13T16:07:40;5.60;;;1.33;;
71187;SDS011;58893;53.130;8.158;2023-03-13T16:10:20;5.57;;;1.80;;
71187;SDS011;58893;53.130;8.158;2023-03-13T16:12:51;4.90;;;1.47;;
71187;SDS011;58893;53.130;8.158;2023-03-13T16:15:17;3.90;;;1.73;;
71187;SDS011;58893;53.130;8.158;2023-03-13T16:17:43;3.47;;;1.20;;
71187;SDS011;58893;53.130;8.158;2023-03-13T16:20:10;4.00;;;1.27;;
71187;SDS011;58893;53.130;8.158;2023-03-13T16:22:44;12.90;;;1.30;;
71187;SDS011;58893;53.130;8.158;2023-03-13T16:25:11;7.63;;;1.40;;
71187;SDS011;58893;53.130;8.158;2023-03-13T16:27:37;2.70;;;1.13;;
71187;SDS011;58893;53.130;8.158;2023-03-13T16:30:05;6.53;;;1.40;;
71187;SDS011;58893;53.130;8.158;2023-03-13T16:32:42;5.40;;;1.50;;
71187;SDS011;58893;53.130;8.158;2023-03-13T16:35:09;2.90;;;1.23;;
71187;SDS011;58893;53.130;8.158;2023-03-13T16:37:35;3.03;;;1.10;;
71187;SDS011;58893;53.130;8.158;2023-03-13T16:40:00;8.33;;;1.70;;
71187;SDS011;58893;53.130;8.158;2023-03-13T16:42:28;4.30;;;1.50;;
71187;SDS011;58893;53.130;8.158;2023-03-13T16:44:53;12.50;;;2.17;;
71187;SDS011;58893;53.130;8.158;2023-03-13T16:47:20;9.53;;;1.77;;
71187;SDS011;58893;53.130;8.158;2023-03-13T16:49:51;5.17;;;1.43;;
71187;SDS011;58893;53.130;8.158;2023-03-13T16:52:18;10.90;;;1.53;;
71187;SDS011;58893;53.130;8.158;2023-03-13T16:54:43;8.17;;;1.80;;
71187;SDS011;58893;53.130;8.158;2023-03-13T16:57:15;9.23;;;1.80;;
71187;SDS011;58893;53.130;8.158;2023-03-13T16:59:47;5.40;;;1.77;;
71187;SDS011;58893;53.130;8.158;2023-03-13T17:02:16;9.80;;;2.00;;
71187;SDS011;58893;53.130;8.158;2023-03-13T17:04:44;5.00;;;1.80;;